sensor_id;sensor_type;location;lat;lon;timestamp;P1;durP1;ratioP1;P2;durP2;ratioP2
70592;SDS011;58294;42.988;20.338;2022-07-29T00:00:03;17.83;;;9.10;;
70592;SDS011;58294;42.988;20.338;2022-07-29T00:02:30;12.77;;;8.75;;
70592;SDS011;58294;42.988;20.338;2022-07-29T00:04:57;20.42;;;8.77;;
70592;SDS011;58294;42.988;20.338;2022-07-29T00:07:23;20.50;;;9.25;;
70592;SDS011;58294;42.988;20.338;2022-07-29T00:09:49;20.13;;;8.20;;
70592;SDS011;58294;42.988;20.338;2022-07-29T00:12:15;15.18;;;9.27;;
70592;SDS011;58294;42.988;20.338;2022-07-29T00:14:41;14.65;;;9.50;;
70592;SDS011;58294;42.988;20.338;2022-07-29T00:17:07;21.42;;;10.32;;
70592;SDS011;58294;42.988;20.338;2022-07-29T00:19:32;12.98;;;8.05;;
70592;SDS011;58294;42.988;20.338;2022-07-29T00:21:59;14.48;;;9.30;;
70592;SDS011;58294;42.988;20.338;2022-07-29T00:24:25;9.82;;;7.72;;
70592;SDS011;58294;42.988;20.338;2022-07-29T00:26:51;10.57;;;8.07;;
70592;SDS011;58294;42.988;20.338;2022-07-29T00:29:17;8.85;;;7.93;;
70592;SDS011;58294;42.988;20.338;2022-07-29T00:31:43;8.77;;;7.88;;
70592;SDS011;58294;42.988;20.338;2022-07-29T00:34:09;11.80;;;8.75;;
70592;SDS011;58294;42.988;20.338;2022-07-29T00:36:54;10.50;;;8.55;;
70592;SDS011;58294;42.988;20.338;2022-07-29T00:39:21;11.60;;;9.43;;
70592;SDS011;58294;42.988;20.338;2022-07-29T00:41:47;11.35;;;8.98;;
70592;SDS011;58294;42.988;20.338;2022-07-29T00:44:13;12.27;;;8.50;;
70592;SDS011;58294;42.988;20.338;2022-07-29T00:46:39;10.63;;;8.57;;
70592;SDS011;58294;42.988;20.338;2022-07-29T00:49:05;12.23;;;8.55;;
70592;SDS011;58294;42.988;20.338;2022-07-29T00:51:32;15.63;;;9.10;;
70592;SDS011;58294;42.988;20.338;2022-07-29T00:54:01;10.43;;;8.13;;
70592;SDS011;58294;42.988;20.338;2022-07-29T00:56:29;11.20;;;8.85;;
70592;SDS011;58294;42.988;20.338;2022-07-29T00:58:56;11.60;;;8.00;;
70592;SDS011;58294;42.988;20.338;2022-07-29T01:01:23;12.75;;;8.13;;
70592;SDS011;58294;42.988;20.338;2022-07-29T01:03:49;11.07;;;8.23;;
70592;SDS011;58294;42.988;20.338;2022-07-29T01:06:16;9.73;;;7.43;;
70592;SDS011;58294;42.988;20.338;2022-07-29T01:08:43;10.55;;;7.93;;
70592;SDS011;58294;42.988;20.338;2022-07-29T01:11:09;9.38;;;7.63;;
70592;SDS011;58294;42.988;20.338;2022-07-29T01:13:35;9.85;;;7.60;;
70592;SDS011;58294;42.988;20.338;2022-07-29T01:16:04;9.50;;;7.97;;
70592;SDS011;58294;42.988;20.338;2022-07-29T01:18:37;12.95;;;8.35;;
70592;SDS011;58294;42.988;20.338;2022-07-29T01:26:42;9.73;;;7.18;;
70592;SDS011;58294;42.988;20.338;2022-07-29T01:29:36;9.25;;;7.97;;
70592;SDS011;58294;42.988;20.338;2022-07-29T01:32:10;9.23;;;8.15;;
70592;SDS011;58294;42.988;20.338;2022-07-29T01:37:20;10.93;;;7.43;;
70592;SDS011;58294;42.988;20.338;2022-07-29T01:39:51;10.00;;;8.05;;
70592;SDS011;58294;42.988;20.338;2022-07-29T01:42:23;10.85;;;7.82;;
70592;SDS011;58294;42.988;20.338;2022-07-29T01:44:59;9.65;;;7.97;;
70592;SDS011;58294;42.988;20.338;2022-07-29T01:47:46;10.55;;;7.70;;
70592;SDS011;58294;42.988;20.338;2022-07-29T01:50:23;11.77;;;8.65;;
70592;SDS011;58294;42.988;20.338;2022-07-29T01:52:59;11.45;;;8.32;;
70592;SDS011;58294;42.988;20.338;2022-07-29T01:55:29;11.48;;;7.72;;
70592;SDS011;58294;42.988;20.338;2022-07-29T01:57:59;10.07;;;8.00;;
70592;SDS011;58294;42.988;20.338;2022-07-29T02:00:28;11.05;;;8.90;;
70592;SDS011;58294;42.988;20.338;2022-07-29T02:02:56;11.27;;;7.47;;
70592;SDS011;58294;42.988;20.338;2022-07-29T02:05:26;9.85;;;7.40;;
70592;SDS011;58294;42.988;20.338;2022-07-29T02:07:53;10.73;;;7.13;;
70592;SDS011;58294;42.988;20.338;2022-07-29T02:10:24;9.73;;;7.60;;
70592;SDS011;58294;42.988;20.338;2022-07-29T02:12:54;8.57;;;7.38;;
70592;SDS011;58294;42.988;20.338;2022-07-29T02:15:22;10.43;;;7.15;;
70592;SDS011;58294;42.988;20.338;2022-07-29T02:17:55;9.15;;;6.72;;
70592;SDS011;58294;42.988;20.338;2022-07-29T02:20:25;8.98;;;6.95;;
70592;SDS011;58294;42.988;20.338;2022-07-29T02:22:52;11.73;;;7.53;;
70592;SDS011;58294;42.988;20.338;2022-07-29T02:25:20;13.45;;;7.57;;
70592;SDS011;58294;42.988;20.338;2022-07-29T02:27:47;9.30;;;6.60;;
70592;SDS011;58294;42.988;20.338;2022-07-29T02:30:15;11.80;;;8.05;;
70592;SDS011;58294;42.988;20.338;2022-07-29T02:32:42;10.55;;;7.35;;
70592;SDS011;58294;42.988;20.338;2022-07-29T02:35:10;9.40;;;7.35;;
70592;SDS011;58294;42.988;20.338;2022-07-29T02:37:39;11.30;;;7.30;;
70592;SDS011;58294;42.988;20.338;2022-07-29T02:40:06;9.32;;;7.20;;
70592;SDS011;58294;42.988;20.338;2022-07-29T02:42:35;12.65;;;8.15;;
70592;SDS011;58294;42.988;20.338;2022-07-29T02:45:03;9.82;;;7.28;;
70592;SDS011;58294;42.988;20.338;2022-07-29T02:47:31;8.43;;;6.65;;
70592;SDS011;58294;42.988;20.338;2022-07-29T02:50:14;7.30;;;6.03;;
70592;SDS011;58294;42.988;20.338;2022-07-29T02:52:45;7.90;;;6.80;;
70592;SDS011;58294;42.988;20.338;2022-07-29T02:57:49;6.82;;;6.07;;
70592;SDS011;58294;42.988;20.338;2022-07-29T03:00:28;8.13;;;6.57;;
70592;SDS011;58294;42.988;20.338;2022-07-29T03:02:59;9.07;;;6.65;;
70592;SDS011;58294;42.988;20.338;2022-07-29T03:05:28;8.55;;;6.50;;
70592;SDS011;58294;42.988;20.338;2022-07-29T03:07:57;8.90;;;6.25;;
70592;SDS011;58294;42.988;20.338;2022-07-29T03:10:26;8.07;;;6.70;;
70592;SDS011;58294;42.988;20.338;2022-07-29T03:12:54;11.02;;;6.13;;
70592;SDS011;58294;42.988;20.338;2022-07-29T03:15:21;6.70;;;5.72;;
70592;SDS011;58294;42.988;20.338;2022-07-29T03:17:47;7.88;;;6.03;;
70592;SDS011;58294;42.988;20.338;2022-07-29T03:20:14;8.70;;;7.05;;
70592;SDS011;58294;42.988;20.338;2022-07-29T03:22:42;7.40;;;6.18;;
70592;SDS011;58294;42.988;20.338;2022-07-29T03:25:09;8.50;;;6.95;;
70592;SDS011;58294;42.988;20.338;2022-07-29T03:27:36;9.60;;;7.22;;
70592;SDS011;58294;42.988;20.338;2022-07-29T03:30:02;8.40;;;7.50;;
70592;SDS011;58294;42.988;20.338;2022-07-29T03:32:29;9.88;;;8.40;;
70592;SDS011;58294;42.988;20.338;2022-07-29T03:34:54;9.20;;;7.03;;
70592;SDS011;58294;42.988;20.338;2022-07-29T03:37:20;10.18;;;7.38;;
70592;SDS011;58294;42.988;20.338;2022-07-29T03:39:46;8.68;;;6.85;;
70592;SDS011;58294;42.988;20.338;2022-07-29T03:42:15;10.00;;;7.05;;
70592;SDS011;58294;42.988;20.338;2022-07-29T03:44:45;11.52;;;7.75;;
70592;SDS011;58294;42.988;20.338;2022-07-29T03:47:14;10.32;;;7.95;;
70592;SDS011;58294;42.988;20.338;2022-07-29T03:49:42;7.60;;;6.68;;
70592;SDS011;58294;42.988;20.338;2022-07-29T03:52:11;9.13;;;7.15;;
70592;SDS011;58294;42.988;20.338;2022-07-29T03:54:38;7.47;;;6.60;;
70592;SDS011;58294;42.988;20.338;2022-07-29T03:57:04;8.20;;;6.55;;
70592;SDS011;58294;42.988;20.338;2022-07-29T03:59:32;9.38;;;6.95;;
70592;SDS011;58294;42.988;20.338;2022-07-29T04:01:59;9.38;;;7.10;;
70592;SDS011;58294;42.988;20.338;2022-07-29T04:04:27;9.45;;;7.85;;
70592;SDS011;58294;42.988;20.338;2022-07-29T04:06:53;8.40;;;7.50;;
70592;SDS011;58294;42.988;20.338;2022-07-29T04:09:19;11.18;;;8.30;;
70592;SDS011;58294;42.988;20.338;2022-07-29T04:11:45;8.77;;;7.05;;
70592;SDS011;58294;42.988;20.338;2022-07-29T04:14:11;10.00;;;8.00;;
70592;SDS011;58294;42.988;20.338;2022-07-29T04:16:37;14.23;;;8.65;;
70592;SDS011;58294;42.988;20.338;2022-07-29T04:19:03;7.65;;;6.93;;
70592;SDS011;58294;42.988;20.338;2022-07-29T04:21:28;10.52;;;8.25;;
70592;SDS011;58294;42.988;20.338;2022-07-29T04:23:54;10.07;;;7.32;;
70592;SDS011;58294;42.988;20.338;2022-07-29T04:26:20;8.40;;;7.45;;
70592;SDS011;58294;42.988;20.338;2022-07-29T04:28:46;9.82;;;8.13;;
70592;SDS011;58294;42.988;20.338;2022-07-29T04:31:12;9.95;;;7.80;;
70592;SDS011;58294;42.988;20.338;2022-07-29T04:33:38;7.93;;;7.13;;
70592;SDS011;58294;42.988;20.338;2022-07-29T04:36:04;8.00;;;6.78;;
70592;SDS011;58294;42.988;20.338;2022-07-29T04:38:30;8.35;;;7.10;;
70592;SDS011;58294;42.988;20.338;2022-07-29T04:40:56;7.70;;;6.65;;
70592;SDS011;58294;42.988;20.338;2022-07-29T04:43:22;7.55;;;6.30;;
70592;SDS011;58294;42.988;20.338;2022-07-29T04:45:48;10.32;;;7.32;;
70592;SDS011;58294;42.988;20.338;2022-07-29T04:48:14;9.10;;;7.50;;
70592;SDS011;58294;42.988;20.338;2022-07-29T04:50:40;8.75;;;7.43;;
70592;SDS011;58294;42.988;20.338;2022-07-29T04:53:06;11.60;;;7.97;;
70592;SDS011;58294;42.988;20.338;2022-07-29T04:55:32;10.18;;;8.35;;
70592;SDS011;58294;42.988;20.338;2022-07-29T04:57:58;10.88;;;8.68;;
70592;SDS011;58294;42.988;20.338;2022-07-29T05:00:24;10.10;;;8.02;;
70592;SDS011;58294;42.988;20.338;2022-07-29T05:02:50;9.13;;;8.20;;
70592;SDS011;58294;42.988;20.338;2022-07-29T05:05:16;8.45;;;7.68;;
70592;SDS011;58294;42.988;20.338;2022-07-29T05:07:42;11.20;;;8.45;;
70592;SDS011;58294;42.988;20.338;2022-07-29T05:10:08;9.52;;;8.50;;
70592;SDS011;58294;42.988;20.338;2022-07-29T05:12:34;8.48;;;7.55;;
70592;SDS011;58294;42.988;20.338;2022-07-29T05:15:00;10.50;;;8.25;;
70592;SDS011;58294;42.988;20.338;2022-07-29T05:17:26;14.35;;;8.20;;
70592;SDS011;58294;42.988;20.338;2022-07-29T05:19:51;9.45;;;7.75;;
70592;SDS011;58294;42.988;20.338;2022-07-29T05:22:18;9.95;;;7.63;;
70592;SDS011;58294;42.988;20.338;2022-07-29T05:24:44;11.05;;;8.75;;
70592;SDS011;58294;42.988;20.338;2022-07-29T05:27:10;10.18;;;8.98;;
70592;SDS011;58294;42.988;20.338;2022-07-29T05:29:36;12.05;;;8.68;;
70592;SDS011;58294;42.988;20.338;2022-07-29T05:32:02;9.40;;;8.27;;
70592;SDS011;58294;42.988;20.338;2022-07-29T05:34:29;9.85;;;8.20;;
70592;SDS011;58294;42.988;20.338;2022-07-29T05:36:54;11.20;;;8.38;;
70592;SDS011;58294;42.988;20.338;2022-07-29T05:39:20;10.60;;;8.10;;
70592;SDS011;58294;42.988;20.338;2022-07-29T05:41:46;10.45;;;8.30;;
70592;SDS011;58294;42.988;20.338;2022-07-29T05:44:12;8.77;;;7.72;;
70592;SDS011;58294;42.988;20.338;2022-07-29T05:46:38;8.05;;;7.00;;
70592;SDS011;58294;42.988;20.338;2022-07-29T05:49:04;9.82;;;7.70;;
70592;SDS011;58294;42.988;20.338;2022-07-29T05:51:34;10.93;;;8.90;;
70592;SDS011;58294;42.988;20.338;2022-07-29T05:54:00;10.02;;;8.23;;
70592;SDS011;58294;42.988;20.338;2022-07-29T05:56:26;8.80;;;7.63;;
70592;SDS011;58294;42.988;20.338;2022-07-29T05:58:52;10.13;;;7.40;;
70592;SDS011;58294;42.988;20.338;2022-07-29T06:01:18;7.22;;;6.40;;
70592;SDS011;58294;42.988;20.338;2022-07-29T06:03:44;16.67;;;7.40;;
70592;SDS011;58294;42.988;20.338;2022-07-29T06:06:10;9.18;;;7.75;;
70592;SDS011;58294;42.988;20.338;2022-07-29T06:08:37;10.15;;;7.90;;
70592;SDS011;58294;42.988;20.338;2022-07-29T06:11:03;11.23;;;7.38;;
70592;SDS011;58294;42.988;20.338;2022-07-29T06:13:30;10.52;;;7.00;;
70592;SDS011;58294;42.988;20.338;2022-07-29T06:15:56;7.75;;;6.95;;
70592;SDS011;58294;42.988;20.338;2022-07-29T06:18:22;9.20;;;8.00;;
70592;SDS011;58294;42.988;20.338;2022-07-29T06:20:52;11.55;;;7.30;;
70592;SDS011;58294;42.988;20.338;2022-07-29T06:23:19;7.75;;;6.95;;
70592;SDS011;58294;42.988;20.338;2022-07-29T06:25:45;8.80;;;7.57;;
70592;SDS011;58294;42.988;20.338;2022-07-29T06:28:12;8.63;;;7.05;;
70592;SDS011;58294;42.988;20.338;2022-07-29T06:30:38;7.72;;;6.93;;
70592;SDS011;58294;42.988;20.338;2022-07-29T06:33:05;12.30;;;7.45;;
70592;SDS011;58294;42.988;20.338;2022-07-29T06:35:33;10.10;;;7.22;;
70592;SDS011;58294;42.988;20.338;2022-07-29T06:38:00;10.93;;;7.65;;
70592;SDS011;58294;42.988;20.338;2022-07-29T06:40:27;11.05;;;7.20;;
70592;SDS011;58294;42.988;20.338;2022-07-29T06:43:11;10.07;;;7.47;;
70592;SDS011;58294;42.988;20.338;2022-07-29T06:45:37;9.10;;;7.55;;
70592;SDS011;58294;42.988;20.338;2022-07-29T06:48:06;9.60;;;7.07;;
70592;SDS011;58294;42.988;20.338;2022-07-29T06:50:32;14.57;;;7.72;;
70592;SDS011;58294;42.988;20.338;2022-07-29T06:52:58;10.32;;;7.15;;
70592;SDS011;58294;42.988;20.338;2022-07-29T06:55:23;15.70;;;8.20;;
70592;SDS011;58294;42.988;20.338;2022-07-29T06:57:49;9.85;;;8.70;;
70592;SDS011;58294;42.988;20.338;2022-07-29T07:00:15;8.52;;;7.63;;
70592;SDS011;58294;42.988;20.338;2022-07-29T07:02:41;9.23;;;7.32;;
70592;SDS011;58294;42.988;20.338;2022-07-29T07:05:07;11.35;;;8.32;;
70592;SDS011;58294;42.988;20.338;2022-07-29T07:07:33;9.15;;;8.20;;
70592;SDS011;58294;42.988;20.338;2022-07-29T07:09:59;9.90;;;8.02;;
70592;SDS011;58294;42.988;20.338;2022-07-29T07:12:25;11.85;;;8.50;;
70592;SDS011;58294;42.988;20.338;2022-07-29T07:14:50;11.90;;;8.13;;
70592;SDS011;58294;42.988;20.338;2022-07-29T07:17:16;8.52;;;7.55;;
70592;SDS011;58294;42.988;20.338;2022-07-29T07:19:42;8.48;;;7.50;;
70592;SDS011;58294;42.988;20.338;2022-07-29T07:22:08;14.05;;;9.52;;
70592;SDS011;58294;42.988;20.338;2022-07-29T07:24:34;13.48;;;8.40;;
70592;SDS011;58294;42.988;20.338;2022-07-29T07:26:59;9.15;;;8.25;;
70592;SDS011;58294;42.988;20.338;2022-07-29T07:29:25;8.52;;;7.63;;
70592;SDS011;58294;42.988;20.338;2022-07-29T07:31:51;11.57;;;8.95;;
70592;SDS011;58294;42.988;20.338;2022-07-29T07:34:17;14.15;;;9.65;;
70592;SDS011;58294;42.988;20.338;2022-07-29T07:36:43;10.20;;;9.20;;
70592;SDS011;58294;42.988;20.338;2022-07-29T07:39:09;11.43;;;9.65;;
70592;SDS011;58294;42.988;20.338;2022-07-29T07:41:35;10.27;;;8.88;;
70592;SDS011;58294;42.988;20.338;2022-07-29T07:44:00;9.75;;;8.75;;
70592;SDS011;58294;42.988;20.338;2022-07-29T07:46:26;11.95;;;9.40;;
70592;SDS011;58294;42.988;20.338;2022-07-29T07:48:52;12.00;;;9.40;;
70592;SDS011;58294;42.988;20.338;2022-07-29T07:51:18;9.70;;;8.50;;
70592;SDS011;58294;42.988;20.338;2022-07-29T07:53:44;12.13;;;10.20;;
70592;SDS011;58294;42.988;20.338;2022-07-29T07:56:10;9.98;;;8.82;;
70592;SDS011;58294;42.988;20.338;2022-07-29T07:58:35;10.32;;;8.43;;
70592;SDS011;58294;42.988;20.338;2022-07-29T08:01:01;10.35;;;9.25;;
70592;SDS011;58294;42.988;20.338;2022-07-29T08:03:27;12.93;;;9.48;;
70592;SDS011;58294;42.988;20.338;2022-07-29T08:05:53;10.63;;;9.18;;
70592;SDS011;58294;42.988;20.338;2022-07-29T08:08:19;11.88;;;10.68;;
70592;SDS011;58294;42.988;20.338;2022-07-29T08:10:45;14.13;;;10.75;;
70592;SDS011;58294;42.988;20.338;2022-07-29T08:13:17;10.43;;;9.05;;
70592;SDS011;58294;42.988;20.338;2022-07-29T08:15:47;10.65;;;9.65;;
70592;SDS011;58294;42.988;20.338;2022-07-29T08:18:22;11.73;;;9.65;;
70592;SDS011;58294;42.988;20.338;2022-07-29T08:20:49;12.05;;;8.80;;
70592;SDS011;58294;42.988;20.338;2022-07-29T08:23:15;9.30;;;8.40;;
70592;SDS011;58294;42.988;20.338;2022-07-29T08:25:41;14.50;;;10.18;;
70592;SDS011;58294;42.988;20.338;2022-07-29T08:28:07;13.05;;;10.02;;
70592;SDS011;58294;42.988;20.338;2022-07-29T08:30:34;12.93;;;10.25;;
70592;SDS011;58294;42.988;20.338;2022-07-29T08:33:00;9.80;;;8.35;;
70592;SDS011;58294;42.988;20.338;2022-07-29T08:35:26;9.52;;;8.52;;
70592;SDS011;58294;42.988;20.338;2022-07-29T08:37:52;9.77;;;8.77;;
70592;SDS011;58294;42.988;20.338;2022-07-29T08:40:19;22.58;;;9.82;;
70592;SDS011;58294;42.988;20.338;2022-07-29T08:42:46;16.30;;;9.82;;
70592;SDS011;58294;42.988;20.338;2022-07-29T08:45:12;14.77;;;9.60;;
70592;SDS011;58294;42.988;20.338;2022-07-29T08:47:39;12.95;;;9.18;;
70592;SDS011;58294;42.988;20.338;2022-07-29T08:50:08;12.88;;;9.05;;
70592;SDS011;58294;42.988;20.338;2022-07-29T08:52:36;12.77;;;9.82;;
70592;SDS011;58294;42.988;20.338;2022-07-29T08:55:06;13.15;;;9.95;;
70592;SDS011;58294;42.988;20.338;2022-07-29T08:57:34;10.00;;;9.07;;
70592;SDS011;58294;42.988;20.338;2022-07-29T09:00:03;10.68;;;9.00;;
70592;SDS011;58294;42.988;20.338;2022-07-29T09:02:29;13.30;;;10.07;;
70592;SDS011;58294;42.988;20.338;2022-07-29T09:04:59;11.02;;;9.27;;
70592;SDS011;58294;42.988;20.338;2022-07-29T09:07:27;10.25;;;9.13;;
70592;SDS011;58294;42.988;20.338;2022-07-29T09:09:53;10.35;;;9.25;;
70592;SDS011;58294;42.988;20.338;2022-07-29T09:12:19;10.38;;;9.38;;
70592;SDS011;58294;42.988;20.338;2022-07-29T09:14:47;12.43;;;9.40;;
70592;SDS011;58294;42.988;20.338;2022-07-29T09:17:13;9.88;;;8.60;;
70592;SDS011;58294;42.988;20.338;2022-07-29T09:19:42;9.82;;;8.82;;
70592;SDS011;58294;42.988;20.338;2022-07-29T09:22:07;14.40;;;9.70;;
70592;SDS011;58294;42.988;20.338;2022-07-29T09:24:39;14.85;;;10.88;;
70592;SDS011;58294;42.988;20.338;2022-07-29T09:27:10;13.25;;;10.10;;
70592;SDS011;58294;42.988;20.338;2022-07-29T09:29:37;12.93;;;9.40;;
70592;SDS011;58294;42.988;20.338;2022-07-29T09:32:05;12.02;;;9.15;;
70592;SDS011;58294;42.988;20.338;2022-07-29T09:34:34;9.77;;;8.45;;
70592;SDS011;58294;42.988;20.338;2022-07-29T09:37:00;10.05;;;8.98;;
70592;SDS011;58294;42.988;20.338;2022-07-29T09:39:30;10.15;;;8.48;;
70592;SDS011;58294;42.988;20.338;2022-07-29T09:42:00;11.93;;;9.20;;
70592;SDS011;58294;42.988;20.338;2022-07-29T09:44:49;13.90;;;8.70;;
70592;SDS011;58294;42.988;20.338;2022-07-29T09:47:16;10.20;;;9.18;;
70592;SDS011;58294;42.988;20.338;2022-07-29T09:49:56;13.38;;;9.95;;
70592;SDS011;58294;42.988;20.338;2022-07-29T09:52:24;11.10;;;9.77;;
70592;SDS011;58294;42.988;20.338;2022-07-29T09:54:51;11.18;;;10.05;;
70592;SDS011;58294;42.988;20.338;2022-07-29T09:57:24;10.75;;;8.50;;
70592;SDS011;58294;42.988;20.338;2022-07-29T10:00:10;10.85;;;9.10;;
70592;SDS011;58294;42.988;20.338;2022-07-29T10:02:38;12.05;;;8.02;;
70592;SDS011;58294;42.988;20.338;2022-07-29T10:05:06;10.50;;;9.10;;
70592;SDS011;58294;42.988;20.338;2022-07-29T10:07:46;14.90;;;8.57;;
70592;SDS011;58294;42.988;20.338;2022-07-29T10:10:20;13.77;;;7.97;;
70592;SDS011;58294;42.988;20.338;2022-07-29T10:13:02;9.98;;;7.45;;
70592;SDS011;58294;42.988;20.338;2022-07-29T10:15:31;9.80;;;8.73;;
70592;SDS011;58294;42.988;20.338;2022-07-29T10:18:02;14.50;;;9.27;;
70592;SDS011;58294;42.988;20.338;2022-07-29T10:20:28;14.52;;;9.25;;
70592;SDS011;58294;42.988;20.338;2022-07-29T10:22:54;10.00;;;7.68;;
70592;SDS011;58294;42.988;20.338;2022-07-29T10:25:21;27.15;;;9.95;;
70592;SDS011;58294;42.988;20.338;2022-07-29T10:27:48;8.25;;;7.25;;
70592;SDS011;58294;42.988;20.338;2022-07-29T10:30:16;29.40;;;12.90;;
70592;SDS011;58294;42.988;20.338;2022-07-29T10:44:17;18.85;;;9.02;;
70592;SDS011;58294;42.988;20.338;2022-07-29T10:46:44;8.30;;;7.43;;
70592;SDS011;58294;42.988;20.338;2022-07-29T10:52:22;9.18;;;8.10;;
70592;SDS011;58294;42.988;20.338;2022-07-29T10:54:37;9.20;;;8.30;;
70592;SDS011;58294;42.988;20.338;2022-07-29T10:59:42;10.80;;;7.93;;
70592;SDS011;58294;42.988;20.338;2022-07-29T11:07:21;9.05;;;7.95;;
70592;SDS011;58294;42.988;20.338;2022-07-29T11:15:09;10.23;;;7.82;;
70592;SDS011;58294;42.988;20.338;2022-07-29T11:23:24;10.43;;;7.50;;
70592;SDS011;58294;42.988;20.338;2022-07-29T11:28:39;7.53;;;6.82;;
70592;SDS011;58294;42.988;20.338;2022-07-29T11:31:40;7.23;;;6.60;;
70592;SDS011;58294;42.988;20.338;2022-07-29T11:45:31;6.18;;;5.57;;
70592;SDS011;58294;42.988;20.338;2022-07-29T11:47:51;6.72;;;6.13;;
70592;SDS011;58294;42.988;20.338;2022-07-29T11:53:03;6.95;;;6.25;;
70592;SDS011;58294;42.988;20.338;2022-07-29T11:55:36;6.40;;;5.70;;
70592;SDS011;58294;42.988;20.338;2022-07-29T11:58:04;6.70;;;5.28;;
70592;SDS011;58294;42.988;20.338;2022-07-29T12:00:37;5.90;;;5.30;;
70592;SDS011;58294;42.988;20.338;2022-07-29T12:03:05;5.93;;;5.32;;
70592;SDS011;58294;42.988;20.338;2022-07-29T12:08:20;7.43;;;6.72;;
70592;SDS011;58294;42.988;20.338;2022-07-29T12:10:48;9.02;;;7.63;;
70592;SDS011;58294;42.988;20.338;2022-07-29T12:13:16;9.75;;;7.45;;
70592;SDS011;58294;42.988;20.338;2022-07-29T12:15:53;9.02;;;7.28;;
70592;SDS011;58294;42.988;20.338;2022-07-29T12:18:22;7.97;;;7.20;;
70592;SDS011;58294;42.988;20.338;2022-07-29T12:20:48;11.27;;;7.70;;
70592;SDS011;58294;42.988;20.338;2022-07-29T12:23:21;8.13;;;7.22;;
70592;SDS011;58294;42.988;20.338;2022-07-29T12:25:47;9.18;;;6.80;;
70592;SDS011;58294;42.988;20.338;2022-07-29T12:28:13;10.45;;;6.97;;
70592;SDS011;58294;42.988;20.338;2022-07-29T12:33:17;10.45;;;7.70;;
70592;SDS011;58294;42.988;20.338;2022-07-29T12:35:49;9.85;;;7.72;;
70592;SDS011;58294;42.988;20.338;2022-07-29T12:38:19;8.80;;;7.43;;
70592;SDS011;58294;42.988;20.338;2022-07-29T12:40:46;9.38;;;7.03;;
70592;SDS011;58294;42.988;20.338;2022-07-29T12:45:40;9.38;;;7.13;;
70592;SDS011;58294;42.988;20.338;2022-07-29T12:48:08;8.02;;;6.45;;
70592;SDS011;58294;42.988;20.338;2022-07-29T12:50:35;21.75;;;10.35;;
70592;SDS011;58294;42.988;20.338;2022-07-29T12:53:16;11.32;;;7.55;;
70592;SDS011;58294;42.988;20.338;2022-07-29T12:55:46;9.27;;;7.45;;
70592;SDS011;58294;42.988;20.338;2022-07-29T12:58:26;8.02;;;7.22;;
70592;SDS011;58294;42.988;20.338;2022-07-29T13:01:02;11.27;;;8.07;;
70592;SDS011;58294;42.988;20.338;2022-07-29T13:03:54;10.18;;;7.07;;
70592;SDS011;58294;42.988;20.338;2022-07-29T13:09:17;8.15;;;6.70;;
70592;SDS011;58294;42.988;20.338;2022-07-29T13:11:46;8.75;;;7.43;;
70592;SDS011;58294;42.988;20.338;2022-07-29T13:14:29;7.70;;;7.00;;
70592;SDS011;58294;42.988;20.338;2022-07-29T13:17:09;7.45;;;6.60;;
70592;SDS011;58294;42.988;20.338;2022-07-29T13:19:36;7.20;;;6.43;;
70592;SDS011;58294;42.988;20.338;2022-07-29T13:22:07;7.43;;;6.72;;
70592;SDS011;58294;42.988;20.338;2022-07-29T13:27:15;14.50;;;8.07;;
70592;SDS011;58294;42.988;20.338;2022-07-29T13:29:45;9.23;;;7.80;;
70592;SDS011;58294;42.988;20.338;2022-07-29T13:32:11;9.43;;;6.45;;
70592;SDS011;58294;42.988;20.338;2022-07-29T13:34:38;7.05;;;6.35;;
70592;SDS011;58294;42.988;20.338;2022-07-29T13:37:04;8.70;;;7.10;;
70592;SDS011;58294;42.988;20.338;2022-07-29T13:39:30;8.02;;;6.80;;
70592;SDS011;58294;42.988;20.338;2022-07-29T13:41:56;9.68;;;6.93;;
70592;SDS011;58294;42.988;20.338;2022-07-29T13:44:22;9.55;;;7.60;;
70592;SDS011;58294;42.988;20.338;2022-07-29T13:46:48;9.57;;;7.13;;
70592;SDS011;58294;42.988;20.338;2022-07-29T13:49:13;7.22;;;6.07;;
70592;SDS011;58294;42.988;20.338;2022-07-29T13:51:40;7.35;;;6.00;;
70592;SDS011;58294;42.988;20.338;2022-07-29T13:54:05;7.97;;;6.38;;
70592;SDS011;58294;42.988;20.338;2022-07-29T13:56:31;19.10;;;8.40;;
70592;SDS011;58294;42.988;20.338;2022-07-29T13:58:57;9.50;;;6.70;;
70592;SDS011;58294;42.988;20.338;2022-07-29T14:01:23;7.53;;;6.05;;
70592;SDS011;58294;42.988;20.338;2022-07-29T14:03:50;8.00;;;6.63;;
70592;SDS011;58294;42.988;20.338;2022-07-29T14:06:15;8.50;;;5.93;;
70592;SDS011;58294;42.988;20.338;2022-07-29T14:08:41;7.20;;;6.50;;
70592;SDS011;58294;42.988;20.338;2022-07-29T14:11:08;9.55;;;7.03;;
70592;SDS011;58294;42.988;20.338;2022-07-29T14:13:33;8.35;;;6.53;;
70592;SDS011;58294;42.988;20.338;2022-07-29T14:15:59;7.90;;;6.22;;
70592;SDS011;58294;42.988;20.338;2022-07-29T14:18:25;6.95;;;6.25;;
70592;SDS011;58294;42.988;20.338;2022-07-29T14:20:51;8.20;;;6.18;;
70592;SDS011;58294;42.988;20.338;2022-07-29T14:23:17;7.70;;;6.25;;
70592;SDS011;58294;42.988;20.338;2022-07-29T14:25:43;9.80;;;6.93;;
70592;SDS011;58294;42.988;20.338;2022-07-29T14:28:09;8.38;;;6.28;;
70592;SDS011;58294;42.988;20.338;2022-07-29T14:30:35;7.70;;;6.45;;
70592;SDS011;58294;42.988;20.338;2022-07-29T14:33:01;8.38;;;7.22;;
70592;SDS011;58294;42.988;20.338;2022-07-29T14:35:28;11.90;;;6.35;;
70592;SDS011;58294;42.988;20.338;2022-07-29T14:37:53;7.93;;;6.78;;
70592;SDS011;58294;42.988;20.338;2022-07-29T14:40:19;7.28;;;6.53;;
70592;SDS011;58294;42.988;20.338;2022-07-29T14:42:45;8.57;;;6.38;;
70592;SDS011;58294;42.988;20.338;2022-07-29T14:45:11;6.05;;;5.45;;
70592;SDS011;58294;42.988;20.338;2022-07-29T14:47:37;9.07;;;6.30;;
70592;SDS011;58294;42.988;20.338;2022-07-29T14:50:04;9.77;;;6.70;;
70592;SDS011;58294;42.988;20.338;2022-07-29T14:52:31;11.02;;;6.95;;
70592;SDS011;58294;42.988;20.338;2022-07-29T14:54:57;7.43;;;6.45;;
70592;SDS011;58294;42.988;20.338;2022-07-29T14:57:24;9.63;;;6.35;;
70592;SDS011;58294;42.988;20.338;2022-07-29T14:59:50;11.85;;;7.05;;
70592;SDS011;58294;42.988;20.338;2022-07-29T15:02:16;7.78;;;6.40;;
70592;SDS011;58294;42.988;20.338;2022-07-29T15:04:42;7.80;;;6.05;;
70592;SDS011;58294;42.988;20.338;2022-07-29T15:07:09;6.97;;;5.30;;
70592;SDS011;58294;42.988;20.338;2022-07-29T15:09:35;5.95;;;5.13;;
70592;SDS011;58294;42.988;20.338;2022-07-29T15:12:01;7.88;;;5.50;;
70592;SDS011;58294;42.988;20.338;2022-07-29T15:14:28;8.02;;;5.75;;
70592;SDS011;58294;42.988;20.338;2022-07-29T15:16:53;9.95;;;6.50;;
70592;SDS011;58294;42.988;20.338;2022-07-29T15:19:19;7.22;;;6.40;;
70592;SDS011;58294;42.988;20.338;2022-07-29T15:21:45;7.38;;;6.68;;
70592;SDS011;58294;42.988;20.338;2022-07-29T15:24:11;8.70;;;7.47;;
70592;SDS011;58294;42.988;20.338;2022-07-29T15:26:37;7.80;;;7.00;;
70592;SDS011;58294;42.988;20.338;2022-07-29T15:29:03;10.82;;;6.95;;
70592;SDS011;58294;42.988;20.338;2022-07-29T15:31:28;7.75;;;6.72;;
70592;SDS011;58294;42.988;20.338;2022-07-29T15:33:54;7.72;;;6.22;;
70592;SDS011;58294;42.988;20.338;2022-07-29T15:36:20;6.93;;;6.22;;
70592;SDS011;58294;42.988;20.338;2022-07-29T15:38:46;6.65;;;6.05;;
70592;SDS011;58294;42.988;20.338;2022-07-29T15:41:15;8.95;;;7.32;;
70592;SDS011;58294;42.988;20.338;2022-07-29T15:43:43;9.18;;;6.32;;
70592;SDS011;58294;42.988;20.338;2022-07-29T15:46:15;7.18;;;6.32;;